sensor_id;sensor_type;location;lat;lon;timestamp;pressure;altitude;pressure_sealevel;temperature;humidity
43804;BME280;29430;52.924;-2.388;2024-03-06T00:03:57;99458.75;;;5.84;100.00
43804;BME280;29430;52.924;-2.388;2024-03-06T00:08:49;99469.72;;;5.83;100.00
43804;BME280;29430;52.924;-2.388;2024-03-06T00:13:41;99461.84;;;5.81;100.00
43804;BME280;29430;52.924;-2.388;2024-03-06T00:18:33;99458.50;;;5.79;100.00
43804;BME280;29430;52.924;-2.388;2024-03-06T00:23:24;99463.44;;;5.76;100.00
43804;BME280;29430;52.924;-2.388;2024-03-06T00:28:16;99464.00;;;5.71;100.00
43804;BME280;29430;52.924;-2.388;2024-03-06T00:33:08;99457.72;;;5.64;100.00
43804;BME280;29430;52.924;-2.388;2024-03-06T00:38:00;99462.47;;;5.62;100.00
43804;BME280;29430;52.924;-2.388;2024-03-06T00:42:54;99467.59;;;5.56;100.00
43804;BME280;29430;52.924;-2.388;2024-03-06T00:47:46;99467.13;;;5.53;100.00
43804;BME280;29430;52.924;-2.388;2024-03-06T00:52:38;99468.19;;;5.52;100.00
43804;BME280;29430;52.924;-2.388;2024-03-06T00:57:29;99466.06;;;5.47;100.00
43804;BME280;29430;52.924;-2.388;2024-03-06T01:02:22;99476.16;;;5.45;100.00
43804;BME280;29430;52.924;-2.388;2024-03-06T01:07:14;99475.72;;;5.42;100.00
43804;BME280;29430;52.924;-2.388;2024-03-06T01:12:08;99467.41;;;5.36;100.00
43804;BME280;29430;52.924;-2.388;2024-03-06T01:17:00;99469.22;;;5.36;100.00
43804;BME280;29430;52.924;-2.388;2024-03-06T01:21:51;99468.78;;;5.32;100.00
43804;BME280;29430;52.924;-2.388;2024-03-06T01:26:43;99457.78;;;5.27;100.00
43804;BME280;29430;52.924;-2.388;2024-03-06T01:31:35;99461.72;;;5.31;100.00
43804;BME280;29430;52.924;-2.388;2024-03-06T01:36:26;99467.97;;;5.32;100.00
43804;BME280;29430;52.924;-2.388;2024-03-06T01:41:18;99467.31;;;5.30;100.00
43804;BME280;29430;52.924;-2.388;2024-03-06T01:46:10;99477.22;;;5.29;100.00
43804;BME280;29430;52.924;-2.388;2024-03-06T01:51:02;99481.16;;;5.27;100.00
43804;BME280;29430;52.924;-2.388;2024-03-06T01:55:56;99480.03;;;5.21;100.00
43804;BME280;29430;52.924;-2.388;2024-03-06T02:00:49;99478.09;;;5.15;100.00
43804;BME280;29430;52.924;-2.388;2024-03-06T02:05:41;99479.88;;;5.08;100.00
43804;BME280;29430;52.924;-2.388;2024-03-06T02:10:34;99488.31;;;5.05;100.00
43804;BME280;29430;52.924;-2.388;2024-03-06T02:15:26;99481.66;;;5.00;100.00
43804;BME280;29430;52.924;-2.388;2024-03-06T02:20:23;99483.88;;;4.97;100.00
43804;BME280;29430;52.924;-2.388;2024-03-06T02:25:15;99480.94;;;4.92;100.00
43804;BME280;29430;52.924;-2.388;2024-03-06T02:30:07;99483.97;;;4.89;100.00
43804;BME280;29430;52.924;-2.388;2024-03-06T02:35:01;99478.16;;;4.85;100.00
43804;BME280;29430;52.924;-2.388;2024-03-06T02:39:53;99485.56;;;4.83;100.00
43804;BME280;29430;52.924;-2.388;2024-03-06T02:44:45;99477.69;;;4.81;100.00
43804;BME280;29430;52.924;-2.388;2024-03-06T02:49:37;99486.97;;;4.79;100.00
43804;BME280;29430;52.924;-2.388;2024-03-06T02:54:29;99478.22;;;4.77;100.00
43804;BME280;29430;52.924;-2.388;2024-03-06T02:59:20;99473.03;;;4.75;100.00
43804;BME280;29430;52.924;-2.388;2024-03-06T03:04:12;99470.53;;;4.74;100.00
43804;BME280;29430;52.924;-2.388;2024-03-06T03:09:04;99467.88;;;4.74;100.00
43804;BME280;29430;52.924;-2.388;2024-03-06T03:13:56;99464.91;;;4.69;100.00
43804;BME280;29430;52.924;-2.388;2024-03-06T03:18:48;99468.59;;;4.68;100.00
43804;BME280;29430;52.924;-2.388;2024-03-06T03:23:40;99466.47;;;4.63;100.00
43804;BME280;29430;52.924;-2.388;2024-03-06T03:28:32;99472.22;;;4.60;100.00
43804;BME280;29430;52.924;-2.388;2024-03-06T03:33:24;99472.78;;;4.55;100.00
43804;BME280;29430;52.924;-2.388;2024-03-06T03:38:16;99463.44;;;4.51;100.00
43804;BME280;29430;52.924;-2.388;2024-03-06T03:43:08;99471.69;;;4.50;100.00
43804;BME280;29430;52.924;-2.388;2024-03-06T03:48:01;99473.69;;;4.47;100.00
43804;BME280;29430;52.924;-2.388;2024-03-06T03:52:54;99469.34;;;4.46;100.00
43804;BME280;29430;52.924;-2.388;2024-03-06T03:57:45;99469.53;;;4.45;100.00
43804;BME280;29430;52.924;-2.388;2024-03-06T04:02:37;99465.72;;;4.39;100.00
43804;BME280;29430;52.924;-2.388;2024-03-06T04:07:29;99464.59;;;4.34;100.00
43804;BME280;29430;52.924;-2.388;2024-03-06T04:12:21;99473.88;;;4.31;100.00
43804;BME280;29430;52.924;-2.388;2024-03-06T04:17:13;99466.56;;;4.25;100.00
43804;BME280;29430;52.924;-2.388;2024-03-06T04:22:05;99464.25;;;4.22;100.00
43804;BME280;29430;52.924;-2.388;2024-03-06T04:26:56;99472.66;;;4.19;100.00
43804;BME280;29430;52.924;-2.388;2024-03-06T04:31:48;99485.78;;;4.13;100.00
43804;BME280;29430;52.924;-2.388;2024-03-06T04:36:40;99476.44;;;4.09;100.00
43804;BME280;29430;52.924;-2.388;2024-03-06T04:41:31;99474.47;;;4.03;100.00
43804;BME280;29430;52.924;-2.388;2024-03-06T04:46:23;99481.97;;;4.08;100.00
43804;BME280;29430;52.924;-2.388;2024-03-06T04:51:15;99492.34;;;4.11;100.00
43804;BME280;29430;52.924;-2.388;2024-03-06T04:56:06;99484.31;;;4.11;100.00
43804;BME280;29430;52.924;-2.388;2024-03-06T05:00:59;99498.38;;;4.13;100.00
43804;BME280;29430;52.924;-2.388;2024-03-06T05:05:51;99511.97;;;4.11;100.00
43804;BME280;29430;52.924;-2.388;2024-03-06T05:11:01;99514.84;;;4.10;100.00
43804;BME280;29430;52.924;-2.388;2024-03-06T05:16:10;99508.50;;;4.03;100.00
43804;BME280;29430;52.924;-2.388;2024-03-06T05:21:20;99520.28;;;4.02;100.00
43804;BME280;29430;52.924;-2.388;2024-03-06T05:26:31;99531.38;;;3.99;100.00
43804;BME280;29430;52.924;-2.388;2024-03-06T05:31:40;99528.38;;;3.93;100.00
43804;BME280;29430;52.924;-2.388;2024-03-06T05:36:50;99525.22;;;3.90;100.00
43804;BME280;29430;52.924;-2.388;2024-03-06T05:42:01;99532.97;;;3.85;100.00
43804;BME280;29430;52.924;-2.388;2024-03-06T05:47:12;99547.09;;;3.79;100.00
43804;BME280;29430;52.924;-2.388;2024-03-06T05:52:21;99544.97;;;3.74;100.00
43804;BME280;29430;52.924;-2.388;2024-03-06T05:57:30;99549.00;;;3.70;100.00
43804;BME280;29430;52.924;-2.388;2024-03-06T06:02:39;99549.53;;;3.65;100.00
43804;BME280;29430;52.924;-2.388;2024-03-06T06:07:31;99555.78;;;3.57;100.00
43804;BME280;29430;52.924;-2.388;2024-03-06T06:12:23;99571.75;;;3.51;100.00
43804;BME280;29430;52.924;-2.388;2024-03-06T06:17:14;99561.22;;;3.41;100.00
43804;BME280;29430;52.924;-2.388;2024-03-06T06:22:07;99572.47;;;3.36;100.00
43804;BME280;29430;52.924;-2.388;2024-03-06T06:26:59;99560.25;;;3.34;100.00
43804;BME280;29430;52.924;-2.388;2024-03-06T06:31:50;99575.13;;;3.36;100.00
43804;BME280;29430;52.924;-2.388;2024-03-06T06:36:46;99583.53;;;3.33;100.00
43804;BME280;29430;52.924;-2.388;2024-03-06T06:41:37;99572.34;;;3.30;100.00
43804;BME280;29430;52.924;-2.388;2024-03-06T06:46:29;99587.94;;;3.26;100.00
43804;BME280;29430;52.924;-2.388;2024-03-06T06:51:21;99577.38;;;3.25;100.00
43804;BME280;29430;52.924;-2.388;2024-03-06T06:56:14;99591.22;;;3.36;100.00
43804;BME280;29430;52.924;-2.388;2024-03-06T07:01:06;99580.31;;;3.46;100.00
43804;BME280;29430;52.924;-2.388;2024-03-06T07:05:58;99584.34;;;3.42;100.00
43804;BME280;29430;52.924;-2.388;2024-03-06T07:10:50;99595.28;;;3.24;100.00
43804;BME280;29430;52.924;-2.388;2024-03-06T07:15:42;99588.16;;;3.08;100.00
43804;BME280;29430;52.924;-2.388;2024-03-06T07:20:34;99592.88;;;3.06;100.00
43804;BME280;29430;52.924;-2.388;2024-03-06T07:25:26;99599.41;;;3.03;100.00
43804;BME280;29430;52.924;-2.388;2024-03-06T07:30:18;99606.75;;;3.10;100.00
43804;BME280;29430;52.924;-2.388;2024-03-06T07:35:10;99606.41;;;3.13;100.00
43804;BME280;29430;52.924;-2.388;2024-03-06T07:40:02;99608.56;;;3.17;100.00
43804;BME280;29430;52.924;-2.388;2024-03-06T07:44:54;99605.38;;;3.22;100.00
43804;BME280;29430;52.924;-2.388;2024-03-06T07:49:46;99610.72;;;3.22;100.00
43804;BME280;29430;52.924;-2.388;2024-03-06T07:54:38;99615.09;;;3.23;100.00
43804;BME280;29430;52.924;-2.388;2024-03-06T07:59:31;99611.25;;;3.17;100.00
43804;BME280;29430;52.924;-2.388;2024-03-06T08:04:24;99618.28;;;3.18;100.00
43804;BME280;29430;52.924;-2.388;2024-03-06T08:09:16;99610.91;;;3.20;100.00
43804;BME280;29430;52.924;-2.388;2024-03-06T08:14:08;99618.25;;;3.27;100.00
43804;BME280;29430;52.924;-2.388;2024-03-06T08:19:00;99613.53;;;3.29;100.00
43804;BME280;29430;52.924;-2.388;2024-03-06T08:23:52;99626.06;;;3.36;100.00
43804;BME280;29430;52.924;-2.388;2024-03-06T08:28:43;99620.88;;;3.43;100.00
43804;BME280;29430;52.924;-2.388;2024-03-06T08:33:35;99614.81;;;3.49;100.00
43804;BME280;29430;52.924;-2.388;2024-03-06T08:38:27;99609.59;;;3.56;100.00
43804;BME280;29430;52.924;-2.388;2024-03-06T08:43:18;99609.72;;;3.63;100.00
43804;BME280;29430;52.924;-2.388;2024-03-06T08:48:11;99632.50;;;3.67;100.00
43804;BME280;29430;52.924;-2.388;2024-03-06T08:53:03;99620.41;;;3.71;100.00
43804;BME280;29430;52.924;-2.388;2024-03-06T08:57:55;99637.78;;;3.83;100.00
43804;BME280;29430;52.924;-2.388;2024-03-06T09:02:46;99635.69;;;3.93;100.00
43804;BME280;29430;52.924;-2.388;2024-03-06T09:07:39;99636.69;;;4.01;100.00
43804;BME280;29430;52.924;-2.388;2024-03-06T09:12:34;99651.06;;;4.08;100.00
43804;BME280;29430;52.924;-2.388;2024-03-06T09:17:26;99639.25;;;4.17;100.00
43804;BME280;29430;52.924;-2.388;2024-03-06T09:22:18;99647.91;;;4.27;100.00
43804;BME280;29430;52.924;-2.388;2024-03-06T09:27:09;99657.38;;;4.38;100.00
43804;BME280;29430;52.924;-2.388;2024-03-06T09:32:01;99654.94;;;4.52;100.00
43804;BME280;29430;52.924;-2.388;2024-03-06T09:36:53;99651.00;;;4.62;100.00
43804;BME280;29430;52.924;-2.388;2024-03-06T09:41:45;99660.66;;;4.72;100.00
43804;BME280;29430;52.924;-2.388;2024-03-06T09:46:37;99666.91;;;4.87;100.00
43804;BME280;29430;52.924;-2.388;2024-03-06T09:51:31;99662.47;;;4.94;100.00
43804;BME280;29430;52.924;-2.388;2024-03-06T09:56:23;99674.28;;;5.08;100.00
43804;BME280;29430;52.924;-2.388;2024-03-06T10:01:15;99680.03;;;5.20;100.00
43804;BME280;29430;52.924;-2.388;2024-03-06T10:06:08;99667.53;;;5.27;100.00
43804;BME280;29430;52.924;-2.388;2024-03-06T10:11:04;99674.38;;;5.45;100.00
43804;BME280;29430;52.924;-2.388;2024-03-06T10:15:57;99679.47;;;5.54;100.00
43804;BME280;29430;52.924;-2.388;2024-03-06T10:20:49;99672.53;;;5.60;100.00
43804;BME280;29430;52.924;-2.388;2024-03-06T10:25:43;99677.22;;;5.73;100.00
43804;BME280;29430;52.924;-2.388;2024-03-06T10:30:37;99677.16;;;5.81;100.00
43804;BME280;29430;52.924;-2.388;2024-03-06T10:35:29;99677.03;;;5.89;100.00
43804;BME280;29430;52.924;-2.388;2024-03-06T10:40:22;99680.69;;;5.97;100.00
43804;BME280;29430;52.924;-2.388;2024-03-06T10:45:14;99678.44;;;6.00;100.00
43804;BME280;29430;52.924;-2.388;2024-03-06T10:50:11;99679.84;;;6.33;100.00
43804;BME280;29430;52.924;-2.388;2024-03-06T10:55:04;99688.13;;;6.74;100.00
43804;BME280;29430;52.924;-2.388;2024-03-06T10:59:59;99672.09;;;7.23;100.00
43804;BME280;29430;52.924;-2.388;2024-03-06T11:04:55;99681.22;;;7.50;100.00
43804;BME280;29430;52.924;-2.388;2024-03-06T11:09:47;99697.81;;;7.88;100.00
43804;BME280;29430;52.924;-2.388;2024-03-06T11:14:40;99694.00;;;8.18;100.00
43804;BME280;29430;52.924;-2.388;2024-03-06T11:20:07;99691.91;;;8.13;100.00
43804;BME280;29430;52.924;-2.388;2024-03-06T11:24:44;99694.81;;;8.12;100.00
43804;BME280;29430;52.924;-2.388;2024-03-06T11:30:03;99701.50;;;8.22;100.00
43804;BME280;29430;52.924;-2.388;2024-03-06T11:34:55;99693.84;;;8.39;100.00
43804;BME280;29430;52.924;-2.388;2024-03-06T11:39:47;99698.94;;;8.83;100.00
43804;BME280;29430;52.924;-2.388;2024-03-06T11:44:52;99691.66;;;9.37;100.00
43804;BME280;29430;52.924;-2.388;2024-03-06T11:49:49;99700.97;;;9.54;99.22
43804;BME280;29430;52.924;-2.388;2024-03-06T11:54:41;99685.50;;;9.81;98.81
43804;BME280;29430;52.924;-2.388;2024-03-06T11:59:34;99694.38;;;10.02;95.40
43804;BME280;29430;52.924;-2.388;2024-03-06T12:04:27;99700.44;;;9.97;91.74
43804;BME280;29430;52.924;-2.388;2024-03-06T12:09:19;99701.81;;;9.61;92.92
43804;BME280;29430;52.924;-2.388;2024-03-06T12:14:18;99711.38;;;9.57;94.30
43804;BME280;29430;52.924;-2.388;2024-03-06T12:19:10;99711.38;;;9.57;91.58
43804;BME280;29430;52.924;-2.388;2024-03-06T12:24:06;99705.59;;;9.47;93.08
43804;BME280;29430;52.924;-2.388;2024-03-06T12:29:08;99722.03;;;9.45;95.17
43804;BME280;29430;52.924;-2.388;2024-03-06T12:34:01;99726.00;;;9.36;92.00
43804;BME280;29430;52.924;-2.388;2024-03-06T12:38:59;99720.19;;;9.26;93.19
43804;BME280;29430;52.924;-2.388;2024-03-06T12:43:51;99711.84;;;9.27;92.94
43804;BME280;29430;52.924;-2.388;2024-03-06T12:48:42;99701.44;;;9.31;92.41
43804;BME280;29430;52.924;-2.388;2024-03-06T12:53:34;99706.63;;;9.46;94.04
43804;BME280;29430;52.924;-2.388;2024-03-06T12:58:27;99712.84;;;9.60;91.21
43804;BME280;29430;52.924;-2.388;2024-03-06T13:03:18;99711.81;;;9.54;89.01
43804;BME280;29430;52.924;-2.388;2024-03-06T13:08:10;99709.34;;;9.39;91.15
43804;BME280;29430;52.924;-2.388;2024-03-06T13:13:05;99715.38;;;9.41;92.00
43804;BME280;29430;52.924;-2.388;2024-03-06T13:17:58;99713.72;;;9.34;92.19
43804;BME280;29430;52.924;-2.388;2024-03-06T13:22:50;99710.81;;;9.22;92.27
43804;BME280;29430;52.924;-2.388;2024-03-06T13:27:41;99727.28;;;9.07;93.69
43804;BME280;29430;52.924;-2.388;2024-03-06T13:32:33;99723.53;;;8.94;95.35
43804;BME280;29430;52.924;-2.388;2024-03-06T13:37:25;99718.09;;;8.88;95.43
43804;BME280;29430;52.924;-2.388;2024-03-06T13:42:17;99724.94;;;8.77;95.66
43804;BME280;29430;52.924;-2.388;2024-03-06T13:47:14;99731.81;;;8.80;94.05
43804;BME280;29430;52.924;-2.388;2024-03-06T13:52:10;99722.88;;;8.79;93.08
43804;BME280;29430;52.924;-2.388;2024-03-06T13:57:02;99728.47;;;8.91;91.74
43804;BME280;29430;52.924;-2.388;2024-03-06T14:01:54;99720.19;;;9.06;90.56
43804;BME280;29430;52.924;-2.388;2024-03-06T14:06:46;99731.84;;;9.13;89.37
43804;BME280;29430;52.924;-2.388;2024-03-06T14:11:37;99722.47;;;9.02;88.29
43804;BME280;29430;52.924;-2.388;2024-03-06T14:16:29;99722.69;;;9.01;89.48
43804;BME280;29430;52.924;-2.388;2024-03-06T14:21:22;99722.03;;;8.92;88.16
43804;BME280;29430;52.924;-2.388;2024-03-06T14:26:14;99722.88;;;8.86;89.23
43804;BME280;29430;52.924;-2.388;2024-03-06T14:31:07;99723.31;;;8.96;88.85
43804;BME280;29430;52.924;-2.388;2024-03-06T14:35:59;99718.91;;;9.02;88.93
43804;BME280;29430;52.924;-2.388;2024-03-06T14:40:51;99731.19;;;9.11;87.66
43804;BME280;29430;52.924;-2.388;2024-03-06T14:45:45;99722.25;;;9.17;87.01
43804;BME280;29430;52.924;-2.388;2024-03-06T14:50:37;99720.16;;;9.12;87.90
43804;BME280;29430;52.924;-2.388;2024-03-06T14:55:28;99719.38;;;9.05;86.55
43804;BME280;29430;52.924;-2.388;2024-03-06T15:00:20;99729.13;;;9.00;86.66
43804;BME280;29430;52.924;-2.388;2024-03-06T15:05:12;99734.34;;;8.94;86.39
43804;BME280;29430;52.924;-2.388;2024-03-06T15:10:06;99736.81;;;8.89;86.03
43804;BME280;29430;52.924;-2.388;2024-03-06T15:14:57;99740.78;;;8.87;86.86
43804;BME280;29430;52.924;-2.388;2024-03-06T15:19:49;99737.66;;;8.96;86.20
43804;BME280;29430;52.924;-2.388;2024-03-06T15:24:41;99734.13;;;9.03;85.26
43804;BME280;29430;52.924;-2.388;2024-03-06T15:29:35;99737.25;;;9.00;85.80
43804;BME280;29430;52.924;-2.388;2024-03-06T15:34:27;99731.22;;;9.04;85.71
43804;BME280;29430;52.924;-2.388;2024-03-06T15:39:19;99740.38;;;9.10;85.84
43804;BME280;29430;52.924;-2.388;2024-03-06T15:44:13;99737.66;;;9.17;85.28
43804;BME280;29430;52.924;-2.388;2024-03-06T15:49:19;99732.44;;;9.22;85.42
43804;BME280;29430;52.924;-2.388;2024-03-06T15:54:12;99731.66;;;9.14;85.53
43804;BME280;29430;52.924;-2.388;2024-03-06T15:59:04;99742.03;;;9.04;85.11
43804;BME280;29430;52.924;-2.388;2024-03-06T16:03:55;99735.97;;;8.95;86.81
43804;BME280;29430;52.924;-2.388;2024-03-06T16:08:47;99736.41;;;8.86;86.97
43804;BME280;29430;52.924;-2.388;2024-03-06T16:13:39;99739.72;;;8.81;88.26
43804;BME280;29430;52.924;-2.388;2024-03-06T16:18:31;99740.75;;;8.73;87.44
43804;BME280;29430;52.924;-2.388;2024-03-06T16:23:22;99743.41;;;8.60;86.44
43804;BME280;29430;52.924;-2.388;2024-03-06T16:28:14;99744.63;;;8.51;86.11
43804;BME280;29430;52.924;-2.388;2024-03-06T16:33:07;99738.81;;;8.47;87.04
43804;BME280;29430;52.924;-2.388;2024-03-06T16:37:58;99734.81;;;8.43;88.34
43804;BME280;29430;52.924;-2.388;2024-03-06T16:42:50;99740.91;;;8.45;88.44
43804;BME280;29430;52.924;-2.388;2024-03-06T16:47:42;99735.41;;;8.38;87.94
43804;BME280;29430;52.924;-2.388;2024-03-06T16:52:34;99735.41;;;8.32;88.28
43804;BME280;29430;52.924;-2.388;2024-03-06T16:57:25;99734.78;;;8.30;88.58
43804;BME280;29430;52.924;-2.388;2024-03-06T17:02:17;99744.72;;;8.22;88.69
43804;BME280;29430;52.924;-2.388;2024-03-06T17:07:08;99744.50;;;8.17;89.62
43804;BME280;29430;52.924;-2.388;2024-03-06T17:12:06;99753.00;;;8.14;90.45
43804;BME280;29430;52.924;-2.388;2024-03-06T17:16:59;99750.06;;;8.09;90.33
43804;BME280;29430;52.924;-2.388;2024-03-06T17:21:52;99748.56;;;8.00;90.98
43804;BME280;29430;52.924;-2.388;2024-03-06T17:26:44;99759.75;;;7.97;91.54
43804;BME280;29430;52.924;-2.388;2024-03-06T17:31:36;99750.34;;;7.86;91.54
43804;BME280;29430;52.924;-2.388;2024-03-06T17:36:29;99764.44;;;7.81;92.14
43804;BME280;29430;52.924;-2.388;2024-03-06T17:41:24;99766.91;;;7.76;92.53
43804;BME280;29430;52.924;-2.388;2024-03-06T17:46:15;99764.59;;;7.66;92.94
43804;BME280;29430;52.924;-2.388;2024-03-06T17:51:07;99769.91;;;7.60;93.44
43804;BME280;29430;52.924;-2.388;2024-03-06T17:55:59;99770.06;;;7.51;93.79
43804;BME280;29430;52.924;-2.388;2024-03-06T18:00:51;99774.38;;;7.46;93.90
43804;BME280;29430;52.924;-2.388;2024-03-06T18:05:42;99772.66;;;7.38;94.80
43804;BME280;29430;52.924;-2.388;2024-03-06T18:10:34;99783.41;;;7.31;94.74
43804;BME280;29430;52.924;-2.388;2024-03-06T18:15:26;99786.25;;;7.23;95.27
43804;BME280;29430;52.924;-2.388;2024-03-06T18:20:18;99792.25;;;7.19;95.59
43804;BME280;29430;52.924;-2.388;2024-03-06T18:25:09;99800.25;;;7.12;95.66
43804;BME280;29430;52.924;-2.388;2024-03-06T18:30:02;99801.22;;;7.04;95.44
43804;BME280;29430;52.924;-2.388;2024-03-06T18:34:54;99807.38;;;6.98;96.16
43804;BME280;29430;52.924;-2.388;2024-03-06T18:39:50;99818.28;;;6.90;96.01
43804;BME280;29430;52.924;-2.388;2024-03-06T18:44:41;99824.66;;;6.82;96.50
43804;BME280;29430;52.924;-2.388;2024-03-06T18:49:33;99818.72;;;6.72;97.33
43804;BME280;29430;52.924;-2.388;2024-03-06T18:54:26;99829.88;;;6.69;97.44
43804;BME280;29430;52.924;-2.388;2024-03-06T18:59:17;99824.59;;;6.60;98.19
43804;BME280;29430;52.924;-2.388;2024-03-06T19:04:09;99832.25;;;6.57;98.15
43804;BME280;29430;52.924;-2.388;2024-03-06T19:09:01;99827.78;;;6.49;98.94
43804;BME280;29430;52.924;-2.388;2024-03-06T19:13:56;99826.69;;;6.43;100.00
43804;BME280;29430;52.924;-2.388;2024-03-06T19:18:48;99820.53;;;6.35;100.00
43804;BME280;29430;52.924;-2.388;2024-03-06T19:23:40;99823.63;;;6.32;100.00
43804;BME280;29430;52.924;-2.388;2024-03-06T19:28:32;99827.06;;;6.25;100.00
43804;BME280;29430;52.924;-2.388;2024-03-06T19:33:23;99825.59;;;6.23;100.00
43804;BME280;29430;52.924;-2.388;2024-03-06T19:38:15;99832.38;;;6.19;100.00
43804;BME280;29430;52.924;-2.388;2024-03-06T19:43:10;99834.41;;;6.17;100.00
43804;BME280;29430;52.924;-2.388;2024-03-06T19:48:03;99834.13;;;6.12;100.00
43804;BME280;29430;52.924;-2.388;2024-03-06T19:52:55;99831.81;;;6.08;100.00
43804;BME280;29430;52.924;-2.388;2024-03-06T19:57:48;99841.28;;;6.04;100.00
43804;BME280;29430;52.924;-2.388;2024-03-06T20:02:40;99842.50;;;6.02;100.00
43804;BME280;29430;52.924;-2.388;2024-03-06T20:07:32;99853.44;;;6.00;100.00
43804;BME280;29430;52.924;-2.388;2024-03-06T20:12:24;99860.16;;;5.96;100.00
43804;BME280;29430;52.924;-2.388;2024-03-06T20:17:16;99863.03;;;5.95;100.00
43804;BME280;29430;52.924;-2.388;2024-03-06T20:22:08;99863.41;;;5.91;100.00
43804;BME280;29430;52.924;-2.388;2024-03-06T20:27:00;99869.34;;;5.87;100.00
43804;BME280;29430;52.924;-2.388;2024-03-06T20:31:54;99866.00;;;5.85;100.00
43804;BME280;29430;52.924;-2.388;2024-03-06T20:36:46;99862.00;;;5.81;100.00
43804;BME280;29430;52.924;-2.388;2024-03-06T20:41:38;99872.13;;;5.79;100.00
43804;BME280;29430;52.924;-2.388;2024-03-06T20:46:31;99861.53;;;5.77;100.00
43804;BME280;29430;52.924;-2.388;2024-03-06T20:51:23;99864.41;;;5.76;100.00
43804;BME280;29430;52.924;-2.388;2024-03-06T20:56:15;99854.84;;;5.73;100.00
43804;BME280;29430;52.924;-2.388;2024-03-06T21:01:06;99875.56;;;5.72;100.00
43804;BME280;29430;52.924;-2.388;2024-03-06T21:05:59;99870.72;;;5.68;100.00
43804;BME280;29430;52.924;-2.388;2024-03-06T21:10:51;99871.25;;;5.63;100.00
43804;BME280;29430;52.924;-2.388;2024-03-06T21:15:43;99879.50;;;5.62;100.00
43804;BME280;29430;52.924;-2.388;2024-03-06T21:20:34;99880.72;;;5.59;100.00
43804;BME280;29430;52.924;-2.388;2024-03-06T21:25:26;99877.56;;;5.55;100.00
43804;BME280;29430;52.924;-2.388;2024-03-06T21:30:18;99868.84;;;5.53;100.00
43804;BME280;29430;52.924;-2.388;2024-03-06T21:35:10;99867.34;;;5.51;100.00
43804;BME280;29430;52.924;-2.388;2024-03-06T21:40:02;99880.13;;;5.49;100.00
43804;BME280;29430;52.924;-2.388;2024-03-06T21:44:59;99879.47;;;5.47;100.00
43804;BME280;29430;52.924;-2.388;2024-03-06T21:49:51;99875.31;;;5.44;100.00
43804;BME280;29430;52.924;-2.388;2024-03-06T21:54:43;99877.31;;;5.42;100.00
43804;BME280;29430;52.924;-2.388;2024-03-06T21:59:35;99884.91;;;5.38;100.00
43804;BME280;29430;52.924;-2.388;2024-03-06T22:04:27;99887.78;;;5.37;100.00
43804;BME280;29430;52.924;-2.388;2024-03-06T22:09:18;99893.34;;;5.35;100.00
43804;BME280;29430;52.924;-2.388;2024-03-06T22:14:11;99886.47;;;5.33;100.00
43804;BME280;29430;52.924;-2.388;2024-03-06T22:19:04;99888.31;;;5.32;100.00
43804;BME280;29430;52.924;-2.388;2024-03-06T22:23:56;99889.31;;;5.31;100.00
43804;BME280;29430;52.924;-2.388;2024-03-06T22:28:48;99874.59;;;5.27;100.00
43804;BME280;29430;52.924;-2.388;2024-03-06T22:33:40;99896.28;;;5.26;100.00
43804;BME280;29430;52.924;-2.388;2024-03-06T22:38:33;99892.09;;;5.23;100.00
43804;BME280;29430;52.924;-2.388;2024-03-06T22:43:24;99892.44;;;5.20;100.00
43804;BME280;29430;52.924;-2.388;2024-03-06T22:48:16;99897.53;;;5.15;100.00
43804;BME280;29430;52.924;-2.388;2024-03-06T22:53:08;99884.44;;;5.12;100.00
43804;BME280;29430;52.924;-2.388;2024-03-06T22:58:00;99885.16;;;5.06;100.00
43804;BME280;29430;52.924;-2.388;2024-03-06T23:02:52;99904.97;;;5.05;100.00
43804;BME280;29430;52.924;-2.388;2024-03-06T23:07:43;99893.94;;;4.99;100.00
43804;BME280;29430;52.924;-2.388;2024-03-06T23:12:35;99896.78;;;4.98;100.00
43804;BME280;29430;52.924;-2.388;2024-03-06T23:17:27;99894.63;;;4.93;100.00
43804;BME280;29430;52.924;-2.388;2024-03-06T23:22:19;99888.09;;;4.88;100.00
43804;BME280;29430;52.924;-2.388;2024-03-06T23:27:11;99902.41;;;4.88;100.00
43804;BME280;29430;52.924;-2.388;2024-03-06T23:32:03;99900.06;;;4.85;100.00
43804;BME280;29430;52.924;-2.388;2024-03-06T23:36:54;99904.09;;;4.81;100.00
43804;BME280;29430;52.924;-2.388;2024-03-06T23:41:46;99898.25;;;4.77;100.00
43804;BME280;29430;52.924;-2.388;2024-03-06T23:46:38;99904.97;;;4.73;100.00
43804;BME280;29430;52.924;-2.388;2024-03-06T23:51:29;99894.59;;;4.70;100.00
43804;BME280;29430;52.924;-2.388;2024-03-06T23:56:21;99892.91;;;4.69;100.00
